sensor_id;sensor_type;location;lat;lon;timestamp;pressure;altitude;pressure_sealevel;temperature;humidity
73842;BME280;62184;52.006;5.924;2023-07-13T00:00:42;100577.13;;;22.05;45.90
73842;BME280;62184;52.006;5.924;2023-07-13T00:03:12;100577.50;;;22.01;45.59
73842;BME280;62184;52.006;5.924;2023-07-13T00:05:38;100582.19;;;21.99;45.39
73842;BME280;62184;52.006;5.924;2023-07-13T00:08:05;100580.66;;;21.95;45.58
73842;BME280;62184;52.006;5.924;2023-07-13T00:10:32;100580.94;;;21.92;45.97
73842;BME280;62184;52.006;5.924;2023-07-13T00:12:58;100583.75;;;21.90;45.83
73842;BME280;62184;52.006;5.924;2023-07-13T00:15:26;100583.88;;;21.89;45.83
73842;BME280;62184;52.006;5.924;2023-07-13T00:17:54;100582.88;;;21.90;45.84
73842;BME280;62184;52.006;5.924;2023-07-13T00:20:24;100587.84;;;21.96;45.59
73842;BME280;62184;52.006;5.924;2023-07-13T00:22:52;100583.66;;;22.03;45.28
73842;BME280;62184;52.006;5.924;2023-07-13T00:25:19;100588.66;;;22.09;45.53
73842;BME280;62184;52.006;5.924;2023-07-13T00:30:13;100588.94;;;22.17;45.38
73842;BME280;62184;52.006;5.924;2023-07-13T00:32:41;100588.78;;;22.19;45.18
73842;BME280;62184;52.006;5.924;2023-07-13T00:35:08;100599.06;;;22.15;44.78
73842;BME280;62184;52.006;5.924;2023-07-13T00:37:37;100591.88;;;22.14;44.81
73842;BME280;62184;52.006;5.924;2023-07-13T00:40:06;100582.22;;;22.10;45.24
73842;BME280;62184;52.006;5.924;2023-07-13T00:42:34;100582.22;;;22.10;44.77
73842;BME280;62184;52.006;5.924;2023-07-13T00:45:02;100586.94;;;22.08;45.39
73842;BME280;62184;52.006;5.924;2023-07-13T00:47:31;100590.09;;;22.02;45.07
73842;BME280;62184;52.006;5.924;2023-07-13T00:49:58;100597.53;;;22.00;45.49
73842;BME280;62184;52.006;5.924;2023-07-13T00:52:25;100594.03;;;21.98;45.37
73842;BME280;62184;52.006;5.924;2023-07-13T00:54:56;100586.00;;;21.96;45.36
73842;BME280;62184;52.006;5.924;2023-07-13T00:57:23;100581.91;;;21.91;45.48
73842;BME280;62184;52.006;5.924;2023-07-13T00:59:53;100591.38;;;21.85;45.33
73842;BME280;62184;52.006;5.924;2023-07-13T01:02:24;100592.72;;;21.80;45.64
73842;BME280;62184;52.006;5.924;2023-07-13T01:04:52;100591.97;;;21.78;45.86
73842;BME280;62184;52.006;5.924;2023-07-13T01:07:19;100585.78;;;21.76;45.45
73842;BME280;62184;52.006;5.924;2023-07-13T01:09:45;100597.72;;;21.73;45.54
73842;BME280;62184;52.006;5.924;2023-07-13T01:12:15;100593.47;;;21.69;45.85
73842;BME280;62184;52.006;5.924;2023-07-13T01:14:41;100588.41;;;21.64;45.79
73842;BME280;62184;52.006;5.924;2023-07-13T01:17:09;100595.81;;;21.62;45.95
73842;BME280;62184;52.006;5.924;2023-07-13T01:19:38;100600.84;;;21.56;45.78
73842;BME280;62184;52.006;5.924;2023-07-13T01:22:12;100588.31;;;21.53;45.82
73842;BME280;62184;52.006;5.924;2023-07-13T01:24:43;100585.84;;;21.50;46.19
73842;BME280;62184;52.006;5.924;2023-07-13T01:27:13;100581.72;;;21.45;45.93
73842;BME280;62184;52.006;5.924;2023-07-13T01:29:42;100596.06;;;21.47;46.39
73842;BME280;62184;52.006;5.924;2023-07-13T01:32:12;100595.41;;;21.43;46.47
73842;BME280;62184;52.006;5.924;2023-07-13T01:34:41;100591.09;;;21.41;46.42
73842;BME280;62184;52.006;5.924;2023-07-13T01:37:11;100592.19;;;21.38;46.46
73842;BME280;62184;52.006;5.924;2023-07-13T01:39:38;100595.88;;;21.37;46.58
73842;BME280;62184;52.006;5.924;2023-07-13T01:42:05;100588.94;;;21.33;46.40
73842;BME280;62184;52.006;5.924;2023-07-13T01:44:32;100589.06;;;21.31;46.68
73842;BME280;62184;52.006;5.924;2023-07-13T01:47:00;100586.56;;;21.28;46.84
73842;BME280;62184;52.006;5.924;2023-07-13T01:49:27;100589.28;;;21.28;46.85
73842;BME280;62184;52.006;5.924;2023-07-13T01:51:54;100581.00;;;21.30;46.48
73842;BME280;62184;52.006;5.924;2023-07-13T01:54:23;100584.50;;;21.32;46.61
73842;BME280;62184;52.006;5.924;2023-07-13T01:56:50;100580.91;;;21.31;46.77
73842;BME280;62184;52.006;5.924;2023-07-13T01:59:16;100573.75;;;21.30;46.38
73842;BME280;62184;52.006;5.924;2023-07-13T02:01:43;100577.78;;;21.25;46.91
73842;BME280;62184;52.006;5.924;2023-07-13T02:04:10;100580.06;;;21.18;46.67
73842;BME280;62184;52.006;5.924;2023-07-13T02:06:36;100586.72;;;21.14;46.96
73842;BME280;62184;52.006;5.924;2023-07-13T02:09:03;100582.59;;;21.09;47.11
73842;BME280;62184;52.006;5.924;2023-07-13T02:11:32;100596.38;;;21.06;47.51
73842;BME280;62184;52.006;5.924;2023-07-13T02:13:59;100588.34;;;21.04;46.88
73842;BME280;62184;52.006;5.924;2023-07-13T02:16:27;100596.94;;;20.98;47.19
73842;BME280;62184;52.006;5.924;2023-07-13T02:18:54;100600.81;;;20.94;47.50
73842;BME280;62184;52.006;5.924;2023-07-13T02:21:21;100593.53;;;20.94;47.72
73842;BME280;62184;52.006;5.924;2023-07-13T02:23:48;100596.25;;;20.94;47.49
73842;BME280;62184;52.006;5.924;2023-07-13T02:26:15;100595.28;;;20.95;47.19
73842;BME280;62184;52.006;5.924;2023-07-13T02:28:44;100599.22;;;20.91;47.69
73842;BME280;62184;52.006;5.924;2023-07-13T02:31:13;100597.66;;;20.87;47.71
73842;BME280;62184;52.006;5.924;2023-07-13T02:33:41;100590.50;;;20.86;48.09
73842;BME280;62184;52.006;5.924;2023-07-13T02:36:09;100591.72;;;20.82;48.25
73842;BME280;62184;52.006;5.924;2023-07-13T02:38:36;100600.06;;;20.79;48.11
73842;BME280;62184;52.006;5.924;2023-07-13T02:41:04;100614.84;;;20.75;48.09
73842;BME280;62184;52.006;5.924;2023-07-13T02:43:31;100599.53;;;20.74;48.01
73842;BME280;62184;52.006;5.924;2023-07-13T02:46:01;100604.00;;;20.75;48.44
73842;BME280;62184;52.006;5.924;2023-07-13T02:48:28;100596.94;;;20.73;48.50
73842;BME280;62184;52.006;5.924;2023-07-13T02:50:55;100595.19;;;20.72;48.26
73842;BME280;62184;52.006;5.924;2023-07-13T02:53:22;100587.25;;;20.69;48.39
73842;BME280;62184;52.006;5.924;2023-07-13T02:55:48;100598.09;;;20.69;48.49
73842;BME280;62184;52.006;5.924;2023-07-13T02:58:15;100607.34;;;20.66;48.50
73842;BME280;62184;52.006;5.924;2023-07-13T03:00:41;100604.75;;;20.65;48.84
73842;BME280;62184;52.006;5.924;2023-07-13T03:03:11;100614.06;;;20.61;49.08
73842;BME280;62184;52.006;5.924;2023-07-13T03:05:40;100608.75;;;20.59;48.96
73842;BME280;62184;52.006;5.924;2023-07-13T03:08:07;100616.13;;;20.57;49.39
73842;BME280;62184;52.006;5.924;2023-07-13T03:10:34;100621.88;;;20.52;49.36
73842;BME280;62184;52.006;5.924;2023-07-13T03:13:01;100621.97;;;20.51;49.14
73842;BME280;62184;52.006;5.924;2023-07-13T03:15:28;100616.69;;;20.49;49.57
73842;BME280;62184;52.006;5.924;2023-07-13T03:17:55;100625.03;;;20.46;49.68
73842;BME280;62184;52.006;5.924;2023-07-13T03:20:24;100625.13;;;20.45;49.55
73842;BME280;62184;52.006;5.924;2023-07-13T03:22:51;100629.56;;;20.46;49.94
73842;BME280;62184;52.006;5.924;2023-07-13T03:25:17;100623.28;;;20.45;49.57
73842;BME280;62184;52.006;5.924;2023-07-13T03:27:44;100630.88;;;20.40;49.81
73842;BME280;62184;52.006;5.924;2023-07-13T03:30:11;100629.03;;;20.41;50.01
73842;BME280;62184;52.006;5.924;2023-07-13T03:32:38;100638.03;;;20.41;49.83
73842;BME280;62184;52.006;5.924;2023-07-13T03:35:06;100634.56;;;20.39;50.48
73842;BME280;62184;52.006;5.924;2023-07-13T03:37:37;100637.28;;;20.39;50.23
73842;BME280;62184;52.006;5.924;2023-07-13T03:40:05;100632.72;;;20.40;50.50
73842;BME280;62184;52.006;5.924;2023-07-13T03:42:33;100634.47;;;20.41;50.15
73842;BME280;62184;52.006;5.924;2023-07-13T03:44:59;100637.19;;;20.41;50.58
73842;BME280;62184;52.006;5.924;2023-07-13T03:47:26;100634.47;;;20.41;50.74
73842;BME280;62184;52.006;5.924;2023-07-13T03:49:53;100637.38;;;20.38;50.21
73842;BME280;62184;52.006;5.924;2023-07-13T03:52:19;100647.44;;;20.36;50.91
73842;BME280;62184;52.006;5.924;2023-07-13T03:54:49;100647.44;;;20.36;50.58
73842;BME280;62184;52.006;5.924;2023-07-13T03:57:15;100655.28;;;20.40;50.42
73842;BME280;62184;52.006;5.924;2023-07-13T03:59:42;100659.75;;;20.41;50.46
73842;BME280;62184;52.006;5.924;2023-07-13T04:02:09;100652.16;;;20.46;50.41
73842;BME280;62184;52.006;5.924;2023-07-13T04:04:36;100649.78;;;20.54;50.85
73842;BME280;62184;52.006;5.924;2023-07-13T04:07:03;100656.22;;;20.66;50.22
73842;BME280;62184;52.006;5.924;2023-07-13T04:09:30;100656.09;;;20.80;50.23
73842;BME280;62184;52.006;5.924;2023-07-13T04:11:59;100661.97;;;20.87;50.04
73842;BME280;62184;52.006;5.924;2023-07-13T04:14:26;100655.47;;;20.89;49.89
73842;BME280;62184;52.006;5.924;2023-07-13T04:16:52;100654.38;;;20.92;49.91
73842;BME280;62184;52.006;5.924;2023-07-13T04:19:19;100657.84;;;20.94;49.52
73842;BME280;62184;52.006;5.924;2023-07-13T04:21:46;100660.69;;;20.92;49.97
73842;BME280;62184;52.006;5.924;2023-07-13T04:24:13;100660.88;;;20.89;50.24
73842;BME280;62184;52.006;5.924;2023-07-13T04:26:39;100659.69;;;20.93;50.26
73842;BME280;62184;52.006;5.924;2023-07-13T04:29:09;100666.69;;;20.98;49.96
73842;BME280;62184;52.006;5.924;2023-07-13T04:31:35;100665.69;;;20.99;49.96
73842;BME280;62184;52.006;5.924;2023-07-13T04:34:02;100669.28;;;20.99;49.98
73842;BME280;62184;52.006;5.924;2023-07-13T04:36:29;100668.75;;;21.07;49.66
73842;BME280;62184;52.006;5.924;2023-07-13T04:38:55;100670.47;;;21.08;49.95
73842;BME280;62184;52.006;5.924;2023-07-13T04:41:22;100671.78;;;21.15;50.08
73842;BME280;62184;52.006;5.924;2023-07-13T04:43:48;100666.88;;;21.20;49.91
73842;BME280;62184;52.006;5.924;2023-07-13T04:46:18;100669.19;;;21.26;50.06
73842;BME280;62184;52.006;5.924;2023-07-13T04:48:44;100669.50;;;21.34;49.53
73842;BME280;62184;52.006;5.924;2023-07-13T04:51:11;100662.63;;;21.41;49.66
73842;BME280;62184;52.006;5.924;2023-07-13T04:53:38;100672.28;;;21.45;49.71
73842;BME280;62184;52.006;5.924;2023-07-13T04:56:05;100667.25;;;21.52;49.66
73842;BME280;62184;52.006;5.924;2023-07-13T04:58:32;100673.44;;;21.54;49.78
73842;BME280;62184;52.006;5.924;2023-07-13T05:01:00;100678.22;;;21.63;49.82
73842;BME280;62184;52.006;5.924;2023-07-13T05:03:29;100682.00;;;21.73;49.50
73842;BME280;62184;52.006;5.924;2023-07-13T05:05:57;100683.53;;;21.77;49.40
73842;BME280;62184;52.006;5.924;2023-07-13T05:08:26;100676.91;;;21.81;49.77
73842;BME280;62184;52.006;5.924;2023-07-13T05:10:53;100687.09;;;21.90;49.16
73842;BME280;62184;52.006;5.924;2023-07-13T05:13:20;100683.34;;;22.04;49.29
73842;BME280;62184;52.006;5.924;2023-07-13T05:15:57;100683.72;;;22.11;49.22
73842;BME280;62184;52.006;5.924;2023-07-13T05:18:25;100693.31;;;22.16;49.02
73842;BME280;62184;52.006;5.924;2023-07-13T05:21:00;100692.94;;;22.21;48.65
73842;BME280;62184;52.006;5.924;2023-07-13T05:23:29;100698.06;;;22.25;48.85
73842;BME280;62184;52.006;5.924;2023-07-13T05:25:56;100709.66;;;22.27;48.37
73842;BME280;62184;52.006;5.924;2023-07-13T05:28:23;100705.47;;;22.23;48.87
73842;BME280;62184;52.006;5.924;2023-07-13T05:30:51;100714.38;;;22.25;48.61
73842;BME280;62184;52.006;5.924;2023-07-13T05:33:17;100714.78;;;22.32;48.84
73842;BME280;62184;52.006;5.924;2023-07-13T05:35:44;100708.00;;;22.37;48.94
73842;BME280;62184;52.006;5.924;2023-07-13T05:38:13;100707.28;;;22.46;48.22
73842;BME280;62184;52.006;5.924;2023-07-13T05:40:42;100711.44;;;22.52;48.52
73842;BME280;62184;52.006;5.924;2023-07-13T05:43:09;100707.50;;;22.56;48.59
73842;BME280;62184;52.006;5.924;2023-07-13T05:45:36;100719.53;;;22.65;48.72
73842;BME280;62184;52.006;5.924;2023-07-13T05:48:03;100718.72;;;22.75;48.35
73842;BME280;62184;52.006;5.924;2023-07-13T05:50:30;100718.13;;;22.83;47.74
73842;BME280;62184;52.006;5.924;2023-07-13T05:52:56;100722.09;;;22.90;47.81
73842;BME280;62184;52.006;5.924;2023-07-13T05:55:26;100727.31;;;22.93;47.56
73842;BME280;62184;52.006;5.924;2023-07-13T05:57:52;100721.50;;;22.98;47.70
73842;BME280;62184;52.006;5.924;2023-07-13T06:00:19;100721.91;;;23.15;47.77
73842;BME280;62184;52.006;5.924;2023-07-13T06:02:46;100726.97;;;23.09;48.04
73842;BME280;62184;52.006;5.924;2023-07-13T06:05:13;100737.78;;;23.22;47.63
73842;BME280;62184;52.006;5.924;2023-07-13T06:07:40;100733.13;;;23.35;47.76
73842;BME280;62184;52.006;5.924;2023-07-13T06:10:07;100743.25;;;23.44;47.46
73842;BME280;62184;52.006;5.924;2023-07-13T06:12:37;100751.72;;;23.52;47.40
73842;BME280;62184;52.006;5.924;2023-07-13T06:15:05;100751.44;;;23.55;46.88
73842;BME280;62184;52.006;5.924;2023-07-13T06:17:33;100753.56;;;23.63;47.62
73842;BME280;62184;52.006;5.924;2023-07-13T06:19:59;100753.44;;;23.75;47.31
73842;BME280;62184;52.006;5.924;2023-07-13T06:22:26;100750.69;;;23.86;47.11
73842;BME280;62184;52.006;5.924;2023-07-13T06:24:53;100753.69;;;23.94;46.76
73842;BME280;62184;52.006;5.924;2023-07-13T06:27:20;100753.22;;;24.01;46.76
73842;BME280;62184;52.006;5.924;2023-07-13T06:29:49;100752.47;;;23.99;46.54
73842;BME280;62184;52.006;5.924;2023-07-13T06:32:15;100761.50;;;23.99;46.84
73842;BME280;62184;52.006;5.924;2023-07-13T06:34:42;100775.03;;;24.01;46.91
73842;BME280;62184;52.006;5.924;2023-07-13T06:37:09;100762.13;;;24.03;46.32
73842;BME280;62184;52.006;5.924;2023-07-13T06:39:36;100769.31;;;24.04;46.18
73842;BME280;62184;52.006;5.924;2023-07-13T06:42:03;100780.00;;;24.07;46.73
73842;BME280;62184;52.006;5.924;2023-07-13T06:44:31;100777.50;;;24.15;46.49
73842;BME280;62184;52.006;5.924;2023-07-13T06:47:00;100778.34;;;24.26;46.54
73842;BME280;62184;52.006;5.924;2023-07-13T06:49:27;100777.22;;;24.29;46.22
73842;BME280;62184;52.006;5.924;2023-07-13T06:51:53;100771.84;;;24.39;46.09
73842;BME280;62184;52.006;5.924;2023-07-13T06:54:20;100777.28;;;24.50;46.27
73842;BME280;62184;52.006;5.924;2023-07-13T06:56:47;100772.41;;;24.53;45.98
73842;BME280;62184;52.006;5.924;2023-07-13T06:59:13;100777.88;;;24.53;45.89
73842;BME280;62184;52.006;5.924;2023-07-13T07:01:40;100777.22;;;24.72;46.07
73842;BME280;62184;52.006;5.924;2023-07-13T07:04:09;100781.66;;;24.84;45.96
73842;BME280;62184;52.006;5.924;2023-07-13T07:06:36;100781.34;;;24.98;45.79
73842;BME280;62184;52.006;5.924;2023-07-13T07:09:02;100789.50;;;25.10;45.51
73842;BME280;62184;52.006;5.924;2023-07-13T07:11:29;100786.34;;;25.14;45.05
73842;BME280;62184;52.006;5.924;2023-07-13T07:13:56;100783.94;;;25.21;45.23
73842;BME280;62184;52.006;5.924;2023-07-13T07:16:24;100789.25;;;25.33;45.30
73842;BME280;62184;52.006;5.924;2023-07-13T07:18:51;100797.53;;;25.43;44.68
73842;BME280;62184;52.006;5.924;2023-07-13T07:21:20;100795.13;;;25.50;44.44
73842;BME280;62184;52.006;5.924;2023-07-13T07:23:47;100792.69;;;25.56;44.35
73842;BME280;62184;52.006;5.924;2023-07-13T07:26:14;100800.97;;;25.45;44.37
73842;BME280;62184;52.006;5.924;2023-07-13T07:28:40;100801.38;;;25.40;44.67
73842;BME280;62184;52.006;5.924;2023-07-13T07:31:08;100798.19;;;25.35;44.59
73842;BME280;62184;52.006;5.924;2023-07-13T07:33:35;100800.06;;;25.35;44.67
73842;BME280;62184;52.006;5.924;2023-07-13T07:36:02;100801.81;;;25.36;44.46
73842;BME280;62184;52.006;5.924;2023-07-13T07:38:32;100800.84;;;25.47;44.31
73842;BME280;62184;52.006;5.924;2023-07-13T07:41:02;100791.97;;;25.54;44.59
73842;BME280;62184;52.006;5.924;2023-07-13T07:43:29;100794.38;;;25.68;43.84
73842;BME280;62184;52.006;5.924;2023-07-13T07:45:56;100807.94;;;25.79;43.62
73842;BME280;62184;52.006;5.924;2023-07-13T07:48:22;100804.50;;;25.87;43.65
73842;BME280;62184;52.006;5.924;2023-07-13T07:50:49;100799.72;;;26.00;43.67
73842;BME280;62184;52.006;5.924;2023-07-13T07:53:15;100802.53;;;26.19;43.22
73842;BME280;62184;52.006;5.924;2023-07-13T07:55:45;100802.69;;;26.28;42.88
73842;BME280;62184;52.006;5.924;2023-07-13T07:58:12;100786.25;;;26.37;43.30
73842;BME280;62184;52.006;5.924;2023-07-13T08:00:38;100786.28;;;26.47;42.31
73842;BME280;62184;52.006;5.924;2023-07-13T08:03:05;100789.75;;;26.49;42.38
73842;BME280;62184;52.006;5.924;2023-07-13T08:05:32;100780.41;;;26.51;42.61
73842;BME280;62184;52.006;5.924;2023-07-13T08:08:01;100782.88;;;26.54;41.91
73842;BME280;62184;52.006;5.924;2023-07-13T08:10:28;100777.41;;;26.64;42.61
73842;BME280;62184;52.006;5.924;2023-07-13T08:12:57;100779.56;;;26.89;41.82
73842;BME280;62184;52.006;5.924;2023-07-13T08:15:24;100787.22;;;27.05;41.25
73842;BME280;62184;52.006;5.924;2023-07-13T08:17:50;100790.25;;;27.02;40.81
73842;BME280;62184;52.006;5.924;2023-07-13T08:20:17;100783.31;;;26.88;41.32
73842;BME280;62184;52.006;5.924;2023-07-13T08:22:44;100784.06;;;27.00;41.22
73842;BME280;62184;52.006;5.924;2023-07-13T08:25:10;100785.47;;;27.14;41.05
73842;BME280;62184;52.006;5.924;2023-07-13T08:27:37;100785.94;;;27.19;41.03
73842;BME280;62184;52.006;5.924;2023-07-13T08:30:07;100784.16;;;27.37;41.35
73842;BME280;62184;52.006;5.924;2023-07-13T08:32:36;100789.13;;;27.80;40.50
73842;BME280;62184;52.006;5.924;2023-07-13T08:35:04;100779.03;;;28.08;40.06
73842;BME280;62184;52.006;5.924;2023-07-13T08:37:31;100783.75;;;28.16;39.58
73842;BME280;62184;52.006;5.924;2023-07-13T08:39:58;100788.44;;;28.33;38.84
73842;BME280;62184;52.006;5.924;2023-07-13T08:42:33;100781.75;;;28.45;38.82
73842;BME280;62184;52.006;5.924;2023-07-13T08:45:16;100783.00;;;28.51;38.18
73842;BME280;62184;52.006;5.924;2023-07-13T08:47:49;100778.31;;;28.61;37.79
73842;BME280;62184;52.006;5.924;2023-07-13T08:50:22;100770.38;;;28.58;37.75
73842;BME280;62184;52.006;5.924;2023-07-13T08:52:54;100775.69;;;28.41;37.12
73842;BME280;62184;52.006;5.924;2023-07-13T08:55:26;100781.78;;;28.08;37.54
73842;BME280;62184;52.006;5.924;2023-07-13T08:58:02;100785.97;;;27.65;38.51
73842;BME280;62184;52.006;5.924;2023-07-13T09:00:42;100784.34;;;27.26;39.14
73842;BME280;62184;52.006;5.924;2023-07-13T09:03:22;100785.19;;;26.98;39.60
73842;BME280;62184;52.006;5.924;2023-07-13T09:05:53;100771.66;;;26.86;40.15
73842;BME280;62184;52.006;5.924;2023-07-13T09:08:34;100784.50;;;26.86;39.61
73842;BME280;62184;52.006;5.924;2023-07-13T09:11:23;100774.97;;;26.90;39.98
73842;BME280;62184;52.006;5.924;2023-07-13T09:14:06;100777.84;;;27.27;39.19
73842;BME280;62184;52.006;5.924;2023-07-13T09:16:55;100778.31;;;27.69;37.70
73842;BME280;62184;52.006;5.924;2023-07-13T09:19:28;100782.75;;;27.80;37.54
73842;BME280;62184;52.006;5.924;2023-07-13T09:21:59;100775.63;;;27.96;37.73
73842;BME280;62184;52.006;5.924;2023-07-13T09:24:36;100777.66;;;28.22;36.99
73842;BME280;62184;52.006;5.924;2023-07-13T09:27:17;100787.19;;;28.27;36.05
73842;BME280;62184;52.006;5.924;2023-07-13T09:29:51;100787.84;;;28.12;35.98
73842;BME280;62184;52.006;5.924;2023-07-13T09:32:31;100782.94;;;28.05;36.10
73842;BME280;62184;52.006;5.924;2023-07-13T09:34:59;100789.72;;;28.11;36.48
73842;BME280;62184;52.006;5.924;2023-07-13T09:37:31;100795.38;;;28.10;36.00
73842;BME280;62184;52.006;5.924;2023-07-13T09:39:59;100810.16;;;27.99;36.93
73842;BME280;62184;52.006;5.924;2023-07-13T09:42:28;100795.97;;;27.47;38.82
73842;BME280;62184;52.006;5.924;2023-07-13T09:44:58;100801.97;;;26.94;40.18
73842;BME280;62184;52.006;5.924;2023-07-13T09:47:27;100811.75;;;26.68;40.85
73842;BME280;62184;52.006;5.924;2023-07-13T09:50:00;100818.38;;;26.66;41.94
73842;BME280;62184;52.006;5.924;2023-07-13T09:52:40;100816.78;;;26.73;41.30
73842;BME280;62184;52.006;5.924;2023-07-13T09:55:23;100820.13;;;26.76;41.18
73842;BME280;62184;52.006;5.924;2023-07-13T09:57:52;100815.53;;;26.86;41.02
73842;BME280;62184;52.006;5.924;2023-07-13T10:00:22;100812.47;;;26.89;40.84
73842;BME280;62184;52.006;5.924;2023-07-13T10:03:05;100813.63;;;26.87;41.13
73842;BME280;62184;52.006;5.924;2023-07-13T10:05:43;100803.69;;;26.76;41.25
73842;BME280;62184;52.006;5.924;2023-07-13T10:08:20;100821.53;;;26.61;41.59
73842;BME280;62184;52.006;5.924;2023-07-13T10:10:54;100816.41;;;26.47;41.80
73842;BME280;62184;52.006;5.924;2023-07-13T10:13:27;100821.84;;;26.68;42.53
73842;BME280;62184;52.006;5.924;2023-07-13T10:15:58;100817.69;;;27.12;42.11
73842;BME280;62184;52.006;5.924;2023-07-13T10:18:29;100820.00;;;27.45;41.82
73842;BME280;62184;52.006;5.924;2023-07-13T10:21:11;100821.22;;;27.70;40.78
73842;BME280;62184;52.006;5.924;2023-07-13T10:23:40;100819.41;;;27.98;40.70
73842;BME280;62184;52.006;5.924;2023-07-13T10:26:13;100820.72;;;28.21;39.79
73842;BME280;62184;52.006;5.924;2023-07-13T10:28:47;100818.50;;;28.44;39.60
73842;BME280;62184;52.006;5.924;2023-07-13T10:31:19;100822.78;;;28.74;38.39
73842;BME280;62184;52.006;5.924;2023-07-13T10:33:49;100823.13;;;29.06;37.46
73842;BME280;62184;52.006;5.924;2023-07-13T10:36:23;100824.59;;;29.36;36.34
73842;BME280;62184;52.006;5.924;2023-07-13T10:38:59;100822.00;;;29.35;36.37
73842;BME280;62184;52.006;5.924;2023-07-13T10:41:32;100833.59;;;29.21;36.18
73842;BME280;62184;52.006;5.924;2023-07-13T10:44:04;100833.78;;;28.92;36.27
73842;BME280;62184;52.006;5.924;2023-07-13T10:46:42;100839.41;;;29.00;36.21
73842;BME280;62184;52.006;5.924;2023-07-13T10:49:14;100843.94;;;29.27;35.84
73842;BME280;62184;52.006;5.924;2023-07-13T10:51:42;100851.19;;;29.10;35.19
73842;BME280;62184;52.006;5.924;2023-07-13T10:54:20;100858.44;;;28.84;35.48
73842;BME280;62184;52.006;5.924;2023-07-13T10:56:50;100862.91;;;28.67;36.17
73842;BME280;62184;52.006;5.924;2023-07-13T10:59:24;100857.25;;;28.68;36.38
73842;BME280;62184;52.006;5.924;2023-07-13T11:01:56;100856.19;;;28.79;37.83
73842;BME280;62184;52.006;5.924;2023-07-13T11:04:31;100846.63;;;29.18;37.53
73842;BME280;62184;52.006;5.924;2023-07-13T11:07:11;100842.88;;;29.63;35.92
73842;BME280;62184;52.006;5.924;2023-07-13T11:09:50;100844.44;;;29.91;35.64
73842;BME280;62184;52.006;5.924;2023-07-13T11:12:51;100848.06;;;29.92;35.01
73842;BME280;62184;52.006;5.924;2023-07-13T11:15:43;100847.66;;;29.79;34.97
73842;BME280;62184;52.006;5.924;2023-07-13T11:18:22;100842.81;;;29.81;35.28
73842;BME280;62184;52.006;5.924;2023-07-13T11:21:12;100847.00;;;29.85;34.97
73842;BME280;62184;52.006;5.924;2023-07-13T11:23:42;100840.31;;;29.87;34.51
73842;BME280;62184;52.006;5.924;2023-07-13T11:26:40;100846.34;;;29.65;33.95
73842;BME280;62184;52.006;5.924;2023-07-13T11:29:12;100885.00;;;29.38;35.96
73842;BME280;62184;52.006;5.924;2023-07-13T11:31:53;100863.38;;;28.62;39.47
73842;BME280;62184;52.006;5.924;2023-07-13T11:34:27;100869.28;;;28.03;41.30
73842;BME280;62184;52.006;5.924;2023-07-13T11:37:00;100869.16;;;27.95;43.79
73842;BME280;62184;52.006;5.924;2023-07-13T11:39:30;100870.06;;;28.13;44.10
73842;BME280;62184;52.006;5.924;2023-07-13T11:42:00;100867.53;;;28.39;43.10
73842;BME280;62184;52.006;5.924;2023-07-13T11:44:33;100865.56;;;28.59;40.88
73842;BME280;62184;52.006;5.924;2023-07-13T11:47:08;100871.34;;;28.56;41.82
73842;BME280;62184;52.006;5.924;2023-07-13T11:49:43;100863.63;;;28.69;40.69
73842;BME280;62184;52.006;5.924;2023-07-13T11:52:16;100864.72;;;28.76;40.57
73842;BME280;62184;52.006;5.924;2023-07-13T11:54:48;100857.41;;;28.67;38.26
73842;BME280;62184;52.006;5.924;2023-07-13T11:57:25;100858.81;;;28.53;38.42
73842;BME280;62184;52.006;5.924;2023-07-13T11:59:55;100857.66;;;28.46;37.77
73842;BME280;62184;52.006;5.924;2023-07-13T12:02:28;100854.38;;;28.42;38.69
73842;BME280;62184;52.006;5.924;2023-07-13T12:04:59;100852.53;;;28.61;38.79
73842;BME280;62184;52.006;5.924;2023-07-13T12:07:32;100848.28;;;28.66;37.53
73842;BME280;62184;52.006;5.924;2023-07-13T12:10:00;100852.16;;;28.46;36.95
73842;BME280;62184;52.006;5.924;2023-07-13T12:12:29;100852.25;;;28.27;37.36
73842;BME280;62184;52.006;5.924;2023-07-13T12:14:55;100858.34;;;28.21;37.79
73842;BME280;62184;52.006;5.924;2023-07-13T12:17:24;100857.16;;;28.23;37.57
73842;BME280;62184;52.006;5.924;2023-07-13T12:19:52;100857.56;;;28.38;37.79
73842;BME280;62184;52.006;5.924;2023-07-13T12:22:20;100846.78;;;28.72;37.58
73842;BME280;62184;52.006;5.924;2023-07-13T12:24:51;100846.22;;;29.13;37.74
73842;BME280;62184;52.006;5.924;2023-07-13T12:27:21;100847.31;;;29.56;35.89
73842;BME280;62184;52.006;5.924;2023-07-13T12:29:51;100853.69;;;29.82;34.91
73842;BME280;62184;52.006;5.924;2023-07-13T12:32:18;100847.31;;;29.82;34.53
73842;BME280;62184;52.006;5.924;2023-07-13T12:34:53;100858.44;;;29.72;35.10
73842;BME280;62184;52.006;5.924;2023-07-13T12:37:21;100855.56;;;29.56;35.28
73842;BME280;62184;52.006;5.924;2023-07-13T12:39:51;100858.31;;;29.56;35.39
73842;BME280;62184;52.006;5.924;2023-07-13T12:42:20;100867.44;;;29.57;35.41
73842;BME280;62184;52.006;5.924;2023-07-13T12:44:49;100879.56;;;29.46;34.28
73842;BME280;62184;52.006;5.924;2023-07-13T12:47:20;100879.88;;;29.25;34.80
73842;BME280;62184;52.006;5.924;2023-07-13T12:49:50;100881.66;;;28.99;36.20
73842;BME280;62184;52.006;5.924;2023-07-13T12:52:22;100874.28;;;28.72;36.53
73842;BME280;62184;52.006;5.924;2023-07-13T12:54:57;100867.47;;;28.49;36.38
73842;BME280;62184;52.006;5.924;2023-07-13T12:57:25;100875.09;;;28.27;36.36
73842;BME280;62184;52.006;5.924;2023-07-13T12:59:52;100876.06;;;27.99;36.44
73842;BME280;62184;52.006;5.924;2023-07-13T13:02:29;100873.50;;;27.68;36.86
73842;BME280;62184;52.006;5.924;2023-07-13T13:05:00;100870.31;;;27.63;37.60